Map

Track Data

SID SEASON NUMBER BASIN SUBBASIN NAME ISO_TIME NATURE LAT LON WMO_WIND WMO_PRES WMO_AGENCY TRACK_TYPE DIST2LAND LANDFALL IFLAG USA_AGENCY USA_ATCF_ID USA_LAT USA_LON USA_RECORD USA_STATUS USA_WIND USA_PRES USA_SSHS USA_R34_NE USA_R34_SE USA_R34_SW USA_R34_NW USA_R50_NE USA_R50_SE USA_R50_SW USA_R50_NW USA_R64_NE USA_R64_SE USA_R64_SW USA_R64_NW USA_POCI USA_ROCI USA_RMW USA_EYE TOKYO_LAT TOKYO_LON TOKYO_GRADE TOKYO_WIND TOKYO_PRES TOKYO_R50_DIR TOKYO_R50_LONG TOKYO_R50_SHORT TOKYO_R30_DIR TOKYO_R30_LONG TOKYO_R30_SHORT TOKYO_LAND CMA_LAT CMA_LON CMA_CAT CMA_WIND CMA_PRES HKO_LAT HKO_LON HKO_CAT HKO_WIND HKO_PRES NEWDELHI_LAT NEWDELHI_LON NEWDELHI_GRADE NEWDELHI_WIND NEWDELHI_PRES NEWDELHI_CI NEWDELHI_DP NEWDELHI_POCI REUNION_LAT REUNION_LON REUNION_TYPE REUNION_WIND REUNION_PRES REUNION_TNUM REUNION_CI REUNION_RMW REUNION_R34_NE REUNION_R34_SE REUNION_R34_SW REUNION_R34_NW REUNION_R50_NE REUNION_R50_SE REUNION_R50_SW REUNION_R50_NW REUNION_R64_NE REUNION_R64_SE REUNION_R64_SW REUNION_R64_NW BOM_LAT BOM_LON BOM_TYPE BOM_WIND BOM_PRES BOM_TNUM BOM_CI BOM_RMW BOM_R34_NE BOM_R34_SE BOM_R34_SW BOM_R34_NW BOM_R50_NE BOM_R50_SE BOM_R50_SW BOM_R50_NW BOM_R64_NE BOM_R64_SE BOM_R64_SW BOM_R64_NW BOM_ROCI BOM_POCI BOM_EYE BOM_POS_METHOD BOM_PRES_METHOD NADI_LAT NADI_LON NADI_CAT NADI_WIND NADI_PRES WELLINGTON_LAT WELLINGTON_LON WELLINGTON_WIND WELLINGTON_PRES DS824_LAT DS824_LON DS824_STAGE DS824_WIND DS824_PRES TD9636_LAT TD9636_LON TD9636_STAGE TD9636_WIND TD9636_PRES TD9635_LAT TD9635_LON TD9635_WIND TD9635_PRES TD9635_ROCI NEUMANN_LAT NEUMANN_LON NEUMANN_CLASS NEUMANN_WIND NEUMANN_PRES MLC_LAT MLC_LON MLC_CLASS MLC_WIND MLC_PRES USA_GUST BOM_GUST BOM_GUST_PER REUNION_GUST REUNION_GUST_PER USA_SEAHGT USA_SEARAD_NE USA_SEARAD_SE USA_SEARAD_SW USA_SEARAD_NW STORM_SPEED STORM_DIR
1928216N19296 1928 41 NA CS NOT_NAMED 1928-08-03 00:00:00 TS 18.8000 -63.6000 35 hurdat_atl main 215 184 O_____________ hurdat_atl AL011928 18.8000 -63.6000 TS 35 0 7 279
1928216N19296 1928 41 NA CS NOT_NAMED 1928-08-03 03:00:00 TS 18.8501 -63.9500 main 187 147 P_____________ AL011928 18.8501 -63.9500 TS 35 0 7 279
1928216N19296 1928 41 NA CS NOT_NAMED 1928-08-03 06:00:00 TS 18.9000 -64.3000 35 hurdat_atl main 147 119 O_____________ hurdat_atl AL011928 18.9000 -64.3000 TS 35 0 7 279
1928216N19296 1928 41 NA NA NOT_NAMED 1928-08-03 09:00:00 TS 18.9499 -64.6500 main 110 92 P_____________ AL011928 18.9499 -64.6500 TS 35 0 7 279
1928216N19296 1928 41 NA NA NOT_NAMED 1928-08-03 12:00:00 TS 19.0000 -65.0000 35 hurdat_atl main 92 74 O_____________ hurdat_atl AL011928 19.0000 -65.0000 TS 35 0 7 279
1928216N19296 1928 41 NA NA NOT_NAMED 1928-08-03 15:00:00 TS 19.0499 -65.3500 main 70 70 P_____________ AL011928 19.0499 -65.3500 TS 35 0 7 279
1928216N19296 1928 41 NA NA NOT_NAMED 1928-08-03 18:00:00 TS 19.1000 -65.7000 35 hurdat_atl main 78 78 O_____________ hurdat_atl AL011928 19.1000 -65.7000 TS 35 0 7 278
1928216N19296 1928 41 NA NA NOT_NAMED 1928-08-03 21:00:00 TS 19.1424 -66.0426 main 78 78 P_____________ AL011928 19.1424 -66.0426 TS 35 0 7 279
1928216N19296 1928 41 NA NA NOT_NAMED 1928-08-04 00:00:00 TS 19.2000 -66.4000 35 hurdat_atl main 89 89 O_____________ hurdat_atl AL011928 19.2000 -66.4000 TS 35 0 7 282
1928216N19296 1928 41 NA NA NOT_NAMED 1928-08-04 03:00:00 TS 19.2925 -66.7925 main 100 100 P_____________ AL011928 19.2925 -66.7925 TS 35 0 8 285
1928216N19296 1928 41 NA NA NOT_NAMED 1928-08-04 06:00:00 TS 19.4000 -67.2000 35 hurdat_atl main 111 111 O_____________ hurdat_atl AL011928 19.4000 -67.2000 TS 35 0 8 284
1928216N19296 1928 41 NA NA NOT_NAMED 1928-08-04 09:00:00 TS 19.4848 -67.5852 main 124 109 P_____________ AL011928 19.4848 -67.5852 TS 35 0 8 285
1928216N19296 1928 41 NA NA NOT_NAMED 1928-08-04 12:00:00 TS 19.6000 -68.0000 35 hurdat_atl main 109 98 O_____________ hurdat_atl AL011928 19.6000 -68.0000 TS 35 0 9 289
1928216N19296 1928 41 NA NA NOT_NAMED 1928-08-04 15:00:00 TS 19.7774 -68.4776 main 99 79 P_____________ AL011928 19.7774 -68.4776 TS 37 0 10 293
1928216N19296 1928 41 NA NA NOT_NAMED 1928-08-04 18:00:00 TS 20.0000 -69.0000 40 hurdat_atl main 84 81 O_____________ hurdat_atl AL011928 20.0000 -69.0000 TS 40 0 11 295
1928216N19296 1928 41 NA NA NOT_NAMED 1928-08-04 21:00:00 TS 20.2424 -69.5426 main 85 81 P_____________ AL011928 20.2424 -69.5426 TS 40 0 11 296
1928216N19296 1928 41 NA NA NOT_NAMED 1928-08-05 00:00:00 TS 20.5000 -70.1000 40 hurdat_atl main 94 88 O_____________ hurdat_atl AL011928 20.5000 -70.1000 TS 40 0 12 296
1928216N19296 1928 41 NA NA NOT_NAMED 1928-08-05 03:00:00 TS 20.7498 -70.6502 main 100 100 P_____________ AL011928 20.7498 -70.6502 TS 40 0 11 296
1928216N19296 1928 41 NA NA NOT_NAMED 1928-08-05 06:00:00 TS 21.0000 -71.2000 40 hurdat_atl main 134 134 O_____________ hurdat_atl AL011928 21.0000 -71.2000 TS 40 0 11 296
1928216N19296 1928 41 NA NA NOT_NAMED 1928-08-05 09:00:00 TS 21.2423 -71.7503 main 124 79 P_____________ AL011928 21.2423 -71.7503 TS 40 0 11 296
1928216N19296 1928 41 NA NA NOT_NAMED 1928-08-05 12:00:00 TS 21.5000 -72.3000 40 hurdat_atl main 79 59 O_____________ hurdat_atl AL011928 21.5000 -72.3000 TS 40 0 12 298
1928216N19296 1928 41 NA NA NOT_NAMED 1928-08-05 15:00:00 TS 21.7848 -72.8502 main 67 67 P_____________ AL011928 21.7848 -72.8502 TS 40 0 12 300
1928216N19296 1928 41 NA NA NOT_NAMED 1928-08-05 18:00:00 TS 22.1000 -73.4000 40 hurdat_atl main 102 102 O_____________ hurdat_atl AL011928 22.1000 -73.4000 TS 40 0 12 303
1928216N19296 1928 41 NA NA NOT_NAMED 1928-08-05 21:00:00 TS 22.4424 -73.9576 main 148 148 P_____________ AL011928 22.4424 -73.9576 TS 42 0 12 305
1928216N19296 1928 41 NA NA NOT_NAMED 1928-08-06 00:00:00 TS 22.8000 -74.5000 45 hurdat_atl main 207 207 O_____________ hurdat_atl AL011928 22.8000 -74.5000 TS 45 0 12 306
1928216N19296 1928 41 NA NA NOT_NAMED 1928-08-06 03:00:00 TS 23.1498 -75.0078 main 242 242 P_____________ AL011928 23.1498 -75.0078 TS 50 0 12 307
1928216N19296 1928 41 NA NA NOT_NAMED 1928-08-06 06:00:00 TS 23.5000 -75.5000 55 hurdat_atl main 249 189 O_____________ hurdat_atl AL011928 23.5000 -75.5000 TS 55 0 12 308
1928216N19296 1928 41 NA NA NOT_NAMED 1928-08-06 09:00:00 TS 23.8574 -76.0076 main 184 126 P_____________ AL011928 23.8574 -76.0076 TS 60 0 12 307
1928216N19296 1928 41 NA NA NOT_NAMED 1928-08-06 12:00:00 TS 24.2000 -76.5000 65 hurdat_atl main 126 80 O_____________ hurdat_atl AL011928 24.2000 -76.5000 HU 65 1 11 307
1928216N19296 1928 41 NA NA NOT_NAMED 1928-08-06 15:00:00 TS 24.5149 -76.9652 main 70 41 P_____________ AL011928 24.5149 -76.9652 HU 67 1 10 306
1928216N19296 1928 41 NA NA NOT_NAMED 1928-08-06 18:00:00 TS 24.8000 -77.4000 70 hurdat_atl main 41 15 O_____________ hurdat_atl AL011928 24.8000 -77.4000 HU 70 1 10 305
1928216N19296 1928 41 NA NA NOT_NAMED 1928-08-06 21:00:00 TS 25.0574 -77.8227 main 20 0 P_____________ AL011928 25.0574 -77.8227 HU 75 1 9 305
1928216N19296 1928 41 NA NA NOT_NAMED 1928-08-07 00:00:00 TS 25.3000 -78.2000 80 hurdat_atl main 24 24 O_____________ hurdat_atl AL011928 25.3000 -78.2000 HU 80 1 8 308
1928216N19296 1928 41 NA NA NOT_NAMED 1928-08-07 03:00:00 TS 25.5499 -78.5301 main 60 60 P_____________ AL011928 25.5499 -78.5301 HU 85 2 7 313
1928216N19296 1928 41 NA NA NOT_NAMED 1928-08-07 06:00:00 TS 25.8000 -78.8000 90 971 hurdat_atl main 105 105 O_____________ hurdat_atl AL011928 25.8000 -78.8000 HU 90 971 2 7 319
1928216N19296 1928 41 NA NA NOT_NAMED 1928-08-07 09:00:00 TS 26.0649 -79.0226 main 109 89 P_____________ AL011928 26.0649 -79.0226 HU 90 2 6 324
1928216N19296 1928 41 NA NA NOT_NAMED 1928-08-07 12:00:00 TS 26.3000 -79.2000 90 hurdat_atl main 89 77 O_____________ hurdat_atl AL011928 26.3000 -79.2000 HU 90 2 5 323
1928216N19296 1928 41 NA NA NOT_NAMED 1928-08-07 15:00:00 TS 26.4650 -79.3576 main 68 54 P_____________ AL011928 26.4650 -79.3576 HU 90 2 4 318
1928216N19296 1928 41 NA NA NOT_NAMED 1928-08-07 18:00:00 TS 26.6000 -79.5000 90 hurdat_atl main 54 41 O_____________ hurdat_atl AL011928 26.6000 -79.5000 HU 90 2 4 317
1928216N19296 1928 41 NA NA NOT_NAMED 1928-08-07 21:00:00 TS 26.7500 -79.6500 main 31 22 P_____________ AL011928 26.7500 -79.6500 HU 90 2 4 318
1928216N19296 1928 41 NA NA NOT_NAMED 1928-08-08 00:00:00 TS 26.9000 -79.8000 90 hurdat_atl main 22 19 O_____________ hurdat_atl AL011928 26.9000 -79.8000 HU 90 2 3 318
1928216N19296 1928 41 NA NA NOT_NAMED 1928-08-08 03:00:00 TS 27.0094 -79.9097 main 19 9 P_____________ AL011928 27.0094 -79.9097 HU 87 2 4 318
1928216N19296 1928 41 NA NA NOT_NAMED 1928-08-08 06:00:00 TS 27.2000 -80.1000 85 977 hurdat_atl main 9 0 O_____________ hurdat_atl AL011928 27.2000 -80.1000 HU 85 977 2 6 318
1928216N19296 1928 41 NA NA NOT_NAMED 1928-08-08 07:00:00 TS 27.3000 -80.2000 85 977 hurdat_atl main 9 0 O_____________ hurdat_atl AL011928 27.3000 -80.2000 L HU 85 977 2 7 319
1928216N19296 1928 41 NA NA NOT_NAMED 1928-08-08 09:00:00 TS 27.4505 -80.3470 main 9 0 P_____________ AL011928 27.4505 -80.3470 HU 78 1 5 319
1928216N19296 1928 41 NA NA NOT_NAMED 1928-08-08 12:00:00 TS 27.6000 -80.5000 70 hurdat_atl main 0 0 O_____________ hurdat_atl AL011928 27.6000 -80.5000 HU 70 1 4 316
1928216N19296 1928 41 NA NA NOT_NAMED 1928-08-08 15:00:00 TS 27.7622 -80.6821 main 0 0 P_____________ AL011928 27.7622 -80.6821 HU 60 0 5 310
1928216N19296 1928 41 NA NA NOT_NAMED 1928-08-08 18:00:00 TS 27.9000 -80.9000 50 hurdat_atl main 0 0 O_____________ hurdat_atl AL011928 27.9000 -80.9000 TS 50 0 5 298
1928216N19296 1928 41 NA NA NOT_NAMED 1928-08-08 21:00:00 TS 28.0000 -81.1851 main 0 0 P_____________ AL011928 28.0000 -81.1851 TS 47 0 6 291
1928216N19296 1928 41 NA NA NOT_NAMED 1928-08-09 00:00:00 TS 28.1000 -81.5000 45 hurdat_atl main 0 0 O_____________ hurdat_atl AL011928 28.1000 -81.5000 TS 45 0 6 294
1928216N19296 1928 41 NA NA NOT_NAMED 1928-08-09 03:00:00 TS 28.2424 -81.8000 main 0 0 P_____________ AL011928 28.2424 -81.8000 TS 42 0 6 300
1928216N19296 1928 41 NA NA NOT_NAMED 1928-08-09 06:00:00 TS 28.4000 -82.1000 40 hurdat_atl main 0 0 O_____________ hurdat_atl AL011928 28.4000 -82.1000 TS 40 0 6 300
1928216N19296 1928 41 NA NA NOT_NAMED 1928-08-09 09:00:00 TS 28.5424 -82.4001 main 0 0 P_____________ AL011928 28.5424 -82.4001 TS 40 0 6 300
1928216N19296 1928 41 NA GM NOT_NAMED 1928-08-09 12:00:00 TS 28.7000 -82.7000 40 hurdat_atl main 9 9 O_____________ hurdat_atl AL011928 28.7000 -82.7000 TS 40 0 6 303
1928216N19296 1928 41 NA GM NOT_NAMED 1928-08-09 15:00:00 TS 28.8849 -83.0001 main 22 22 P_____________ AL011928 28.8849 -83.0001 TS 40 0 7 307
1928216N19296 1928 41 NA GM NOT_NAMED 1928-08-09 18:00:00 TS 29.1000 -83.3000 40 hurdat_atl main 22 22 O_____________ hurdat_atl AL011928 29.1000 -83.3000 TS 40 0 7 311
1928216N19296 1928 41 NA GM NOT_NAMED 1928-08-09 21:00:00 TS 29.3337 -83.6001 main 29 22 P_____________ AL011928 29.3337 -83.6001 TS 37 0 7 314
1928216N19296 1928 41 NA GM NOT_NAMED 1928-08-10 00:00:00 TS 29.6000 -83.9000 35 hurdat_atl main 36 9 O_____________ hurdat_atl AL011928 29.6000 -83.9000 TS 35 0 8 316
1928216N19296 1928 41 NA GM NOT_NAMED 1928-08-10 03:00:00 TS 29.8982 -84.2201 main 9 0 P_____________ AL011928 29.8982 -84.2201 TS 35 0 8 319
1928216N19296 1928 41 NA GM NOT_NAMED 1928-08-10 04:00:00 TS 30.0000 -84.3000 35 hurdat_atl main 9 0 O_____________ hurdat_atl AL011928 30.0000 -84.3000 L TS 35 0 7 332
1928216N19296 1928 41 NA NA NOT_NAMED 1928-08-10 06:00:00 TS 30.2000 -84.4000 35 hurdat_atl main 0 0 O_____________ hurdat_atl AL011928 30.2000 -84.4000 TS 35 0 7 342
1928216N19296 1928 41 NA NA NOT_NAMED 1928-08-10 09:00:00 TS 30.5702 -84.5117 main 0 0 P_____________ AL011928 30.5702 -84.5117 TS 35 0 8 354
1928216N19296 1928 41 NA NA NOT_NAMED 1928-08-10 12:00:00 TS 31.0000 -84.5000 35 hurdat_atl main 0 0 O_____________ hurdat_atl AL011928 31.0000 -84.5000 TS 35 0 9 11
1928216N19296 1928 41 NA NA NOT_NAMED 1928-08-10 15:00:00 TS 31.4349 -84.3175 main 0 0 P_____________ AL011928 31.4349 -84.3175 TS 32 -1 10 25
1928216N19296 1928 41 NA NA NOT_NAMED 1928-08-10 18:00:00 TS 31.9000 -84.0000 30 hurdat_atl main 0 0 O_____________ hurdat_atl AL011928 31.9000 -84.0000 TD 30 -1 11 31
1928216N19296 1928 41 NA NA NOT_NAMED 1928-08-10 21:00:00 TS 32.3849 -83.6371 main 0 0 P_____________ AL011928 32.3849 -83.6371 TD 30 -1 12 34
1928216N19296 1928 41 NA NA NOT_NAMED 1928-08-11 00:00:00 TS 32.9000 -83.2000 30 hurdat_atl main 0 0 O_____________ hurdat_atl AL011928 32.9000 -83.2000 TD 30 -1 13 36
1928216N19296 1928 41 NA NA NOT_NAMED 1928-08-11 03:00:00 TS 33.4348 -82.7293 main 0 0 P_____________ AL011928 33.4348 -82.7293 TD 30 -1 14 37
1928216N19296 1928 41 NA NA NOT_NAMED 1928-08-11 06:00:00 ET 34.0000 -82.2000 30 hurdat_atl main 0 0 O_____________ hurdat_atl AL011928 34.0000 -82.2000 EX 30 -4 15 38
1928216N19296 1928 41 NA NA NOT_NAMED 1928-08-11 09:00:00 ET 34.5923 -81.6219 main 0 0 P_____________ AL011928 34.5923 -81.6219 EX 30 -4 16 39
1928216N19296 1928 41 NA NA NOT_NAMED 1928-08-11 12:00:00 ET 35.2000 -81.0000 30 hurdat_atl main 0 0 O_____________ hurdat_atl AL011928 35.2000 -81.0000 EX 30 -4 16 40
1928216N19296 1928 41 NA NA NOT_NAMED 1928-08-11 15:00:00 ET 35.8295 -80.3722 main 0 0 P_____________ AL011928 35.8295 -80.3722 EX 30 -4 16 41
1928216N19296 1928 41 NA NA NOT_NAMED 1928-08-11 18:00:00 ET 36.4000 -79.7000 30 hurdat_atl main 0 0 O_____________ hurdat_atl AL011928 36.4000 -79.7000 EX 30 -4 15 48
1928216N19296 1928 41 NA NA NOT_NAMED 1928-08-11 21:00:00 ET 36.8290 -79.0006 main 0 0 P_____________ AL011928 36.8290 -79.0006 EX 32 -4 14 56
1928216N19296 1928 41 NA NA NOT_NAMED 1928-08-12 00:00:00 ET 37.2000 -78.2000 35 hurdat_atl main 0 0 O_____________ hurdat_atl AL011928 37.2000 -78.2000 EX 35 -4 16 61
1928216N19296 1928 41 NA NA NOT_NAMED 1928-08-12 03:00:00 ET 37.6231 -77.2157 main 0 0 P_____________ AL011928 37.6231 -77.2157 EX 40 -4 18 63
1928216N19296 1928 41 NA NA NOT_NAMED 1928-08-12 06:00:00 ET 38.0000 -76.2000 45 hurdat_atl main 8 0 O_____________ hurdat_atl AL011928 38.0000 -76.2000 EX 45 -4 16 65
1928216N19296 1928 41 NA NA NOT_NAMED 1928-08-12 09:00:00 ET 38.3091 -75.3122 main 0 0 P_____________ AL011928 38.3091 -75.3122 EX 50 -4 14 69
1928216N19296 1928 41 NA NA NOT_NAMED 1928-08-12 12:00:00 ET 38.5000 -74.5000 55 hurdat_atl main 52 52 O_____________ hurdat_atl AL011928 38.5000 -74.5000 EX 55 -4 13 80
1928216N19296 1928 41 NA NA NOT_NAMED 1928-08-12 15:00:00 ET 38.5371 -73.7112 main 109 109 P_____________ AL011928 38.5371 -73.7112 EX 55 -4 12 90
1928216N19296 1928 41 NA NA NOT_NAMED 1928-08-12 18:00:00 ET 38.5000 -73.0000 55 hurdat_atl main 157 157 O_____________ hurdat_atl AL011928 38.5000 -73.0000 EX 55 -4 11 92
1928216N19296 1928 41 NA NA NOT_NAMED 1928-08-12 21:00:00 ET 38.4995 -72.3625 main 197 197 P_____________ AL011928 38.4995 -72.3625 EX 52 -4 9 90
1928216N19296 1928 41 NA NA NOT_NAMED 1928-08-13 00:00:00 ET 38.5000 -71.8000 50 hurdat_atl main 242 242 O_____________ hurdat_atl AL011928 38.5000 -71.8000 EX 50 -4 9 90
1928216N19296 1928 41 NA NA NOT_NAMED 1928-08-13 03:00:00 ET 38.4998 -71.2700 main 279 279 P_____________ AL011928 38.4998 -71.2700 EX 47 -4 8 90
1928216N19296 1928 41 NA NA NOT_NAMED 1928-08-13 06:00:00 ET 38.5000 -70.8000 45 hurdat_atl main 298 298 O_____________ hurdat_atl AL011928 38.5000 -70.8000 EX 45 -4 7 90
1928216N19296 1928 41 NA NA NOT_NAMED 1928-08-13 09:00:00 ET 38.4999 -70.3625 main 317 317 P_____________ AL011928 38.4999 -70.3625 EX 42 -4 6 90
1928216N19296 1928 41 NA NA NOT_NAMED 1928-08-13 12:00:00 ET 38.5000 -70.0000 40 hurdat_atl main 338 338 O_____________ hurdat_atl AL011928 38.5000 -70.0000 EX 40 -4 5 90
1928216N19296 1928 41 NA NA NOT_NAMED 1928-08-13 15:00:00 ET 38.5000 -69.7250 main 344 344 P_____________ AL011928 38.5000 -69.7250 EX 37 -4 4 90
1928216N19296 1928 41 NA NA NOT_NAMED 1928-08-13 18:00:00 ET 38.5000 -69.5000 35 hurdat_atl main 349 O_____________ hurdat_atl AL011928 38.5000 -69.5000 EX 35 -4 4 90

About IBTrACS Database

This database is a web-friendly format of International Best Track Archive for Climate Stewardship (IBTrACS), a global best track data archive curated by NOAA dating back to 1842.

Updated: 2021-12-03